Time;durP1;ratioP1;P1;durP2;ratioP2;P2;SDS_P1;SDS_P2;PMS_P1;PMS_P2;Temp;Humidity;BMP_temperature;BMP_pressure;BME280_temperature;BME280_humidity;BME280_pressure;Samples;Min_cycle;Max_cycle;Signal;HPM_P1;HPM_P2
2022/07/11 00:01:14;;;;;;;4.10;1.58;;;12.40;99.90;;;;;;5052714;28;20275;-89
2022/07/11 00:03:44;;;;;;;3.50;1.75;;;12.50;99.90;;;;;;5038002;28;20564;-85
2022/07/11 00:06:15;;;;;;;5.30;1.70;;;12.50;99.90;;;;;;5032662;28;20205;-86
2022/07/11 00:08:46;;;;;;;2.17;1.30;;;12.50;99.90;;;;;;5034462;28;20213;-86
2022/07/11 00:11:16;;;;;;;3.38;1.30;;;12.50;99.90;;;;;;5032547;28;20205;-86
2022/07/11 00:13:47;;;;;;;3.90;1.40;;;12.60;99.90;;;;;;5035619;28;20197;-89
2022/07/11 00:16:20;;;;;;;3.33;1.58;;;12.60;99.90;;;;;;5032770;28;20200;-89
2022/07/11 00:18:50;;;;;;;5.07;1.48;;;12.60;99.90;;;;;;5032025;28;20200;-87
2022/07/11 00:21:21;;;;;;;4.15;1.55;;;12.70;99.90;;;;;;5034433;28;20201;-86
2022/07/11 00:23:54;;;;;;;3.97;1.60;;;12.70;99.90;;;;;;5032230;28;20201;-86
2022/07/11 00:26:26;;;;;;;3.13;1.48;;;12.80;99.90;;;;;;5034865;28;20200;-85
2022/07/11 00:28:57;;;;;;;2.78;1.40;;;12.80;99.90;;;;;;5032951;28;20201;-87
2022/07/11 00:31:30;;;;;;;3.10;1.45;;;12.90;99.90;;;;;;5034414;28;20197;-86
2022/07/11 00:34:02;;;;;;;2.30;1.20;;;13.00;99.90;;;;;;5034031;28;20203;-86
2022/07/11 00:36:33;;;;;;;2.25;1.30;;;13.00;99.90;;;;;;5035449;28;20279;-87
2022/07/11 00:39:04;;;;;;;4.75;1.40;;;13.20;99.90;;;;;;5067333;28;20744;-87
2022/07/11 00:41:38;;;;;;;2.25;1.38;;;13.20;99.90;;;;;;5034289;28;20192;-87
2022/07/11 00:44:11;;;;;;;2.35;1.33;;;13.20;99.90;;;;;;5034473;28;20296;-89
2022/07/11 00:46:46;;;;;;;3.22;1.42;;;13.30;99.90;;;;;;5046807;28;20204;-90
2022/07/11 00:49:17;;;;;;;3.10;1.30;;;13.30;99.90;;;;;;5033927;28;20201;-87
2022/07/11 00:51:51;;;;;;;3.25;1.77;;;13.30;99.90;;;;;;5032056;28;20196;-88
2022/07/11 00:54:29;;;;;;;6.47;2.03;;;13.40;99.90;;;;;;5032906;28;20204;-87
2022/07/11 00:57:03;;;;;;;2.72;1.50;;;13.50;99.90;;;;;;5032924;28;20279;-88
2022/07/11 00:59:34;;;;;;;5.43;1.83;;;13.60;99.90;;;;;;5033197;28;20675;-87
2022/07/11 01:02:06;;;;;;;5.45;2.10;;;13.60;99.90;;;;;;5033385;28;20197;-87
2022/07/11 01:04:37;;;;;;;5.35;2.10;;;13.60;99.90;;;;;;5035276;28;20247;-88
2022/07/11 01:07:08;;;;;;;3.72;1.70;;;13.60;99.90;;;;;;5033522;28;20197;-86
2022/07/11 01:09:40;;;;;;;3.28;1.50;;;13.60;99.90;;;;;;5033457;28;20204;-87
2022/07/11 01:12:11;;;;;;;4.65;1.50;;;13.60;99.90;;;;;;5037714;28;20201;-89
2022/07/11 01:14:42;;;;;;;3.80;1.33;;;13.60;99.90;;;;;;5036582;28;20205;-87
2022/07/11 01:17:15;;;;;;;3.90;1.33;;;13.70;99.90;;;;;;5035924;28;20207;-87
2022/07/11 01:19:46;;;;;;;3.00;1.38;;;13.80;99.90;;;;;;5034904;28;20201;-87
2022/07/11 01:22:17;;;;;;;5.38;1.35;;;13.90;99.90;;;;;;5032533;28;20809;-87
2022/07/11 01:24:50;;;;;;;3.85;1.20;;;14.00;99.90;;;;;;5033801;28;20872;-88
2022/07/11 01:27:21;;;;;;;3.28;1.10;;;14.10;99.90;;;;;;5035657;28;20703;-87
2022/07/11 01:29:52;;;;;;;5.65;1.35;;;14.10;99.90;;;;;;5033212;28;20720;-87
2022/07/11 01:32:23;;;;;;;4.97;1.42;;;14.20;99.90;;;;;;5032717;28;20197;-85
2022/07/11 01:34:53;;;;;;;2.85;1.10;;;14.20;99.90;;;;;;5031750;28;20227;-85
2022/07/11 01:37:24;;;;;;;3.13;1.15;;;14.20;99.90;;;;;;5039017;28;20232;-85
2022/07/11 01:39:57;;;;;;;3.72;1.02;;;14.20;99.90;;;;;;5034986;28;20548;-86
2022/07/11 01:42:27;;;;;;;3.55;1.35;;;14.30;99.90;;;;;;5043795;28;20691;-86
2022/07/11 01:44:58;;;;;;;4.00;1.20;;;14.40;99.90;;;;;;5033338;28;20208;-85
2022/07/11 01:47:29;;;;;;;2.60;0.80;;;14.40;99.90;;;;;;5033530;28;20220;-85
2022/07/11 01:50:00;;;;;;;2.85;0.90;;;14.40;99.90;;;;;;5036977;28;20206;-85
2022/07/11 01:52:30;;;;;;;2.60;1.08;;;14.50;99.90;;;;;;5035629;28;20583;-85
2022/07/11 01:55:03;;;;;;;1.92;1.02;;;14.50;99.90;;;;;;5038646;28;20195;-86
2022/07/11 01:57:34;;;;;;;6.57;1.42;;;14.50;99.90;;;;;;5042664;28;20646;-85
2022/07/11 02:00:09;;;;;;;2.00;0.85;;;14.50;99.90;;;;;;5039981;28;20196;-87
2022/07/11 02:02:43;;;;;;;4.53;1.10;;;14.60;99.90;;;;;;5037104;28;20311;-87
2022/07/11 02:05:14;;;;;;;2.60;1.02;;;14.50;99.90;;;;;;5034990;28;20231;-88
2022/07/11 02:10:34;;;;;;;5.63;1.33;;;14.30;99.90;;;;;;5041202;28;20203;-89
2022/07/11 02:13:05;;;;;;;6.40;1.30;;;14.20;99.90;;;;;;5034826;28;20683;-88
2022/07/11 02:15:35;;;;;;;3.05;0.90;;;14.20;99.90;;;;;;5035608;28;20204;-88
2022/07/11 02:18:06;;;;;;;4.45;1.20;;;14.10;99.90;;;;;;5036512;28;20232;-91
2022/07/11 02:20:38;;;;;;;4.43;1.08;;;14.10;99.90;;;;;;5036217;28;20231;-86
2022/07/11 02:23:10;;;;;;;4.57;1.17;;;14.00;99.90;;;;;;5040523;28;20201;-90
2022/07/11 02:25:43;;;;;;;2.72;0.93;;;14.00;99.90;;;;;;5040097;28;20336;-87
2022/07/11 02:28:14;;;;;;;5.13;1.15;;;14.00;99.90;;;;;;5035505;28;20207;-88
2022/07/11 02:30:46;;;;;;;4.07;1.30;;;13.90;99.90;;;;;;5037791;28;20204;-88
2022/07/11 02:33:17;;;;;;;2.95;0.90;;;14.00;99.90;;;;;;5046991;28;20238;-89
2022/07/11 02:35:51;;;;;;;3.65;1.13;;;13.90;99.90;;;;;;5043610;28;20198;-87
2022/07/11 02:38:22;;;;;;;4.13;1.10;;;13.90;99.90;;;;;;5033784;28;20248;-86
2022/07/11 02:40:55;;;;;;;5.05;0.98;;;13.90;99.90;;;;;;5033493;28;20201;-86
2022/07/11 02:43:26;;;;;;;5.47;1.02;;;13.90;99.90;;;;;;5035088;28;20266;-81
2022/07/11 02:45:56;;;;;;;6.22;1.42;;;14.00;99.90;;;;;;5036658;28;20686;-89
2022/07/11 02:48:27;;;;;;;2.35;0.85;;;14.00;99.90;;;;;;5036444;28;20200;-87
2022/07/11 02:51:00;;;;;;;3.00;1.02;;;14.10;99.90;;;;;;5034965;28;20308;-87
2022/07/11 02:53:32;;;;;;;2.88;1.15;;;14.10;99.90;;;;;;5033640;28;20230;-87
2022/07/11 02:56:06;;;;;;;2.45;1.00;;;14.20;99.90;;;;;;5033883;28;22662;-87
2022/07/11 02:58:37;;;;;;;3.38;1.00;;;14.30;99.90;;;;;;5034499;28;20201;-88
2022/07/11 03:01:08;;;;;;;2.25;1.05;;;14.40;99.90;;;;;;5036227;28;20256;-88
2022/07/11 03:03:39;;;;;;;2.58;0.73;;;14.60;99.90;;;;;;5036873;28;20192;-86
2022/07/11 03:06:10;;;;;;;3.17;0.88;;;14.70;99.90;;;;;;5037526;28;20227;-86
2022/07/11 03:08:41;;;;;;;2.47;0.88;;;14.80;99.90;;;;;;5038923;28;20190;-85
2022/07/11 03:11:13;;;;;;;2.10;0.93;;;14.90;99.90;;;;;;5037940;28;20328;-85
2022/07/11 03:13:44;;;;;;;2.78;1.00;;;15.10;99.90;;;;;;5039492;28;20197;-87
2022/07/11 03:16:16;;;;;;;4.07;1.00;;;15.20;99.90;;;;;;5038452;28;20835;-87
2022/07/11 03:18:47;;;;;;;2.42;1.10;;;15.30;99.90;;;;;;5040714;28;20254;-85
2022/07/11 03:21:20;;;;;;;6.05;1.08;;;15.30;99.90;;;;;;5035811;28;20209;-87
2022/07/11 03:23:51;;;;;;;6.55;1.50;;;15.30;99.90;;;;;;5038305;28;20202;-87
2022/07/11 03:26:26;;;;;;;4.63;1.20;;;15.40;99.90;;;;;;5036140;28;20259;-89
2022/07/11 03:28:56;;;;;;;4.10;1.27;;;15.40;99.90;;;;;;5034958;28;20659;-87
2022/07/11 03:31:30;;;;;;;5.75;1.27;;;15.50;99.90;;;;;;5031625;28;21479;-87
2022/07/11 03:34:01;;;;;;;4.45;1.35;;;15.50;99.90;;;;;;5038016;28;20191;-81
2022/07/11 03:36:31;;;;;;;4.63;1.55;;;15.50;99.90;;;;;;5030398;28;20216;-82
2022/07/11 03:39:03;;;;;;;4.53;1.30;;;15.40;99.90;;;;;;5032580;28;20194;-84
2022/07/11 03:41:36;;;;;;;5.93;1.25;;;15.40;99.90;;;;;;5033550;28;20258;-81
2022/07/11 03:44:07;;;;;;;4.88;1.25;;;15.30;99.90;;;;;;5032465;28;20204;-85
2022/07/11 03:46:38;;;;;;;3.90;1.10;;;15.30;99.90;;;;;;5032441;28;20284;-83
2022/07/11 03:49:09;;;;;;;5.80;1.20;;;15.10;99.90;;;;;;5033453;28;20196;-83
2022/07/11 03:51:41;;;;;;;4.00;1.17;;;15.00;99.90;;;;;;5032299;28;20201;-86
2022/07/11 03:54:12;;;;;;;3.90;1.00;;;14.90;99.90;;;;;;5034157;28;20196;-90
2022/07/11 03:56:45;;;;;;;7.40;1.35;;;14.90;99.90;;;;;;5035492;28;20205;-90
2022/07/11 03:59:16;;;;;;;2.92;1.00;;;14.80;99.90;;;;;;5036532;28;20212;-90
2022/07/11 04:01:47;;;;;;;4.60;1.10;;;14.80;99.90;;;;;;5033411;28;22569;-83
2022/07/11 04:04:17;;;;;;;4.25;1.50;;;14.80;99.90;;;;;;5030407;28;20219;-83
2022/07/11 04:06:48;;;;;;;3.30;1.40;;;14.80;99.90;;;;;;5033397;28;20225;-85
2022/07/11 04:09:19;;;;;;;5.63;1.73;;;14.80;99.90;;;;;;5032213;28;20196;-85
2022/07/11 04:11:54;;;;;;;3.60;1.05;;;14.80;99.90;;;;;;5032502;28;20204;-84
2022/07/11 04:14:25;;;;;;;4.88;1.70;;;14.80;99.90;;;;;;5031716;28;20211;-84
2022/07/11 04:16:56;;;;;;;5.07;1.60;;;14.80;99.90;;;;;;5032764;28;20197;-84
2022/07/11 04:19:27;;;;;;;7.47;1.92;;;14.80;99.90;;;;;;5032172;28;20201;-85
2022/07/11 04:21:59;;;;;;;6.43;1.83;;;14.80;99.90;;;;;;5035233;28;20212;-84
2022/07/11 04:24:30;;;;;;;3.33;1.45;;;14.90;99.90;;;;;;5034260;28;20229;-85
2022/07/11 04:27:03;;;;;;;3.05;1.10;;;14.80;99.90;;;;;;5028033;28;20239;-83
2022/07/11 04:29:34;;;;;;;9.95;1.80;;;14.80;99.90;;;;;;5031509;28;20258;-84
2022/07/11 04:32:04;;;;;;;6.80;1.70;;;14.80;99.90;;;;;;5029332;28;20188;-84
2022/07/11 04:34:35;;;;;;;3.38;1.50;;;14.80;99.90;;;;;;5030369;28;20208;-86
2022/07/11 04:37:06;;;;;;;6.43;1.38;;;14.80;99.90;;;;;;5029578;28;20251;-86
2022/07/11 04:39:37;;;;;;;4.28;1.20;;;14.80;99.90;;;;;;5032827;28;20567;-87
2022/07/11 04:42:10;;;;;;;6.03;1.33;;;14.80;99.90;;;;;;5032201;28;20620;-86
2022/07/11 04:44:41;;;;;;;3.70;1.30;;;14.70;99.90;;;;;;5034421;28;21973;-85
2022/07/11 04:47:12;;;;;;;5.60;1.40;;;14.60;99.90;;;;;;5030902;28;20296;-86
2022/07/11 04:49:46;;;;;;;3.10;1.10;;;14.60;99.90;;;;;;5031910;28;20227;-84
2022/07/11 04:52:19;;;;;;;4.60;1.33;;;14.50;99.90;;;;;;5031848;28;20204;-85
2022/07/11 04:54:51;;;;;;;4.90;1.40;;;14.50;99.90;;;;;;5031393;28;20196;-83
2022/07/11 04:57:24;;;;;;;4.45;1.08;;;14.50;99.90;;;;;;5031748;28;20201;-84
2022/07/11 04:59:55;;;;;;;4.25;1.55;;;14.50;99.90;;;;;;5030795;28;20204;-85
2022/07/11 05:02:26;;;;;;;5.30;1.65;;;14.50;99.90;;;;;;5031362;28;20201;-84
2022/07/11 05:04:56;;;;;;;5.32;1.52;;;14.50;99.90;;;;;;5031254;28;20189;-85
2022/07/11 05:07:30;;;;;;;4.78;1.00;;;14.50;99.90;;;;;;5030259;28;22055;-84
2022/07/11 05:10:01;;;;;;;5.18;1.40;;;14.50;99.90;;;;;;5027333;28;20208;-83
2022/07/11 05:12:33;;;;;;;5.70;1.10;;;14.60;99.90;;;;;;5030346;28;20201;-85
2022/07/11 05:15:04;;;;;;;4.80;1.20;;;14.60;99.90;;;;;;5029177;28;20201;-84
2022/07/11 05:17:35;;;;;;;3.70;0.90;;;14.60;99.90;;;;;;5029065;28;20258;-84
2022/07/11 05:20:06;;;;;;;2.72;1.00;;;14.60;99.90;;;;;;5029331;28;20208;-83
2022/07/11 05:22:37;;;;;;;2.10;1.02;;;14.60;99.90;;;;;;5028300;28;20204;-84
2022/07/11 05:25:09;;;;;;;2.35;1.00;;;14.60;99.90;;;;;;5029786;28;20201;-84
2022/07/11 05:27:41;;;;;;;4.05;1.17;;;14.70;99.90;;;;;;5030783;28;20228;-84
2022/07/11 05:30:13;;;;;;;4.30;1.10;;;14.70;99.90;;;;;;5031121;28;20201;-84
2022/07/11 05:32:43;;;;;;;3.75;1.30;;;14.70;99.90;;;;;;5029428;28;20267;-83
2022/07/11 05:35:14;;;;;;;4.38;1.20;;;14.70;99.90;;;;;;5029511;28;20197;-82
2022/07/11 05:37:45;;;;;;;3.85;1.10;;;14.70;99.90;;;;;;5029207;28;20232;-84
2022/07/11 05:40:16;;;;;;;4.10;1.10;;;14.70;99.90;;;;;;5028315;28;20204;-82
2022/07/11 05:42:49;;;;;;;3.55;1.23;;;14.60;99.90;;;;;;5026948;28;20201;-85
2022/07/11 05:45:24;;;;;;;3.75;1.10;;;14.70;99.90;;;;;;5029164;28;20284;-84
2022/07/11 05:47:55;;;;;;;2.95;0.82;;;14.60;99.90;;;;;;5029285;28;20221;-84
2022/07/11 05:50:26;;;;;;;2.67;0.65;;;14.60;99.90;;;;;;5028485;28;21754;-83
2022/07/11 05:52:57;;;;;;;3.05;1.00;;;14.50;99.90;;;;;;5029320;28;20587;-83
2022/07/11 05:55:28;;;;;;;2.53;0.77;;;14.50;99.90;;;;;;5029212;28;20201;-83
2022/07/11 05:58:03;;;;;;;2.40;1.13;;;14.50;99.90;;;;;;5026703;28;20590;-83
2022/07/11 06:00:34;;;;;;;5.90;1.20;;;14.50;99.90;;;;;;5031758;28;20618;-84
2022/07/11 06:03:04;;;;;;;4.57;1.10;;;14.50;99.90;;;;;;5029462;28;20671;-83
2022/07/11 06:05:35;;;;;;;4.82;1.17;;;14.50;99.90;;;;;;5028760;28;21053;-83
2022/07/11 06:10:53;;;;;;;2.75;0.90;;;14.50;99.90;;;;;;5028130;28;20254;-81
2022/07/11 06:13:26;;;;;;;2.97;1.23;;;14.50;99.90;;;;;;5027110;28;21417;-84
2022/07/11 06:15:57;;;;;;;6.65;1.40;;;14.50;99.90;;;;;;5029480;28;20254;-82
2022/07/11 06:18:27;;;;;;;4.70;1.30;;;14.50;99.90;;;;;;5026627;28;20225;-84
2022/07/11 06:20:58;;;;;;;2.80;1.17;;;14.50;99.90;;;;;;5028134;28;20202;-83
2022/07/11 06:23:29;;;;;;;3.85;1.20;;;14.50;99.90;;;;;;5029072;28;20211;-83
2022/07/11 06:26:03;;;;;;;5.05;1.40;;;14.50;99.90;;;;;;5030387;28;20438;-83
2022/07/11 06:28:36;;;;;;;3.30;1.25;;;14.50;99.90;;;;;;5025903;28;20201;-84
2022/07/11 06:31:07;;;;;;;4.07;1.33;;;14.50;99.90;;;;;;5027187;28;20204;-83
2022/07/11 06:33:38;;;;;;;2.30;1.30;;;14.50;99.90;;;;;;5027242;28;20284;-82
2022/07/11 06:36:10;;;;;;;4.72;1.55;;;14.50;99.90;;;;;;5034189;28;20205;-84
2022/07/11 06:38:41;;;;;;;4.47;1.30;;;14.40;99.90;;;;;;5028811;28;20244;-83
2022/07/11 06:41:14;;;;;;;3.85;1.58;;;14.40;99.90;;;;;;5026572;28;20196;-82
2022/07/11 06:43:47;;;;;;;4.25;1.45;;;14.30;99.90;;;;;;5030439;28;20672;-83
2022/07/11 06:46:18;;;;;;;3.50;1.60;;;14.30;99.90;;;;;;5030921;28;21015;-83
2022/07/11 06:48:49;;;;;;;6.15;1.50;;;14.30;99.90;;;;;;5032267;28;20212;-83
2022/07/11 06:51:27;;;;;;;4.40;1.45;;;14.30;99.90;;;;;;5031523;28;20204;-82
2022/07/11 06:54:01;;;;;;;5.03;1.50;;;14.20;99.90;;;;;;5032702;28;20196;-83
2022/07/11 06:56:32;;;;;;;6.70;1.60;;;14.30;99.90;;;;;;5032955;28;20201;-85
2022/07/11 06:59:05;;;;;;;7.38;2.28;;;14.20;99.90;;;;;;5035641;28;20196;-84
2022/07/11 07:01:37;;;;;;;6.93;2.50;;;14.30;99.90;;;;;;5031959;28;20209;-82
2022/07/11 07:04:09;;;;;;;6.22;2.38;;;14.20;99.90;;;;;;5031851;28;20197;-83
2022/07/11 07:06:39;;;;;;;5.93;2.38;;;14.20;99.90;;;;;;5032541;28;20656;-83
2022/07/11 07:09:10;;;;;;;5.72;2.20;;;14.20;99.90;;;;;;5034471;28;20204;-83
2022/07/11 07:11:42;;;;;;;6.18;2.45;;;14.20;99.90;;;;;;5032469;28;20220;-82
2022/07/11 07:14:16;;;;;;;5.40;1.90;;;14.20;99.90;;;;;;5032190;28;20200;-83
2022/07/11 07:16:46;;;;;;;6.38;2.22;;;14.10;99.90;;;;;;5035607;28;20201;-82
2022/07/11 07:19:17;;;;;;;9.32;2.63;;;14.20;99.90;;;;;;5033864;28;20201;-82
2022/07/11 07:21:48;;;;;;;9.18;6.00;;;14.10;99.90;;;;;;5031834;28;20212;-83
2022/07/11 07:24:19;;;;;;;8.25;4.68;;;14.10;99.90;;;;;;5031309;28;21108;-83
2022/07/11 07:26:50;;;;;;;17.50;11.52;;;14.10;99.90;;;;;;5032742;28;20279;-82
2022/07/11 07:29:22;;;;;;;11.45;6.68;;;14.10;99.90;;;;;;5032161;28;20193;-83
2022/07/11 07:31:53;;;;;;;8.70;3.97;;;14.00;99.90;;;;;;5032830;28;20739;-83
2022/07/11 07:34:24;;;;;;;7.10;3.38;;;14.00;99.90;;;;;;5032211;28;20196;-81
2022/07/11 07:36:55;;;;;;;5.40;2.58;;;14.00;99.90;;;;;;5033346;28;20198;-83
2022/07/11 07:39:25;;;;;;;5.82;2.20;;;14.00;99.90;;;;;;5033228;28;20200;-83
2022/07/11 07:41:56;;;;;;;4.15;1.92;;;13.90;99.90;;;;;;5029801;28;20208;-82
2022/07/11 07:44:30;;;;;;;4.68;2.10;;;13.90;99.90;;;;;;5030178;28;20194;-83
2022/07/11 07:47:01;;;;;;;5.15;2.25;;;13.90;99.90;;;;;;5031452;28;20227;-83
2022/07/11 07:49:32;;;;;;;4.25;2.00;;;13.90;99.90;;;;;;5030250;28;20204;-81
2022/07/11 07:52:03;;;;;;;4.13;2.20;;;13.90;99.90;;;;;;5032128;28;20204;-83
2022/07/11 07:54:35;;;;;;;7.47;4.53;;;13.90;99.90;;;;;;5032682;28;20197;-84
2022/07/11 07:57:06;;;;;;;21.15;13.13;;;13.90;99.90;;;;;;5033486;28;20200;-84
2022/07/11 07:59:39;;;;;;;27.90;20.45;;;13.90;99.90;;;;;;5036123;28;20201;-80
2022/07/11 08:02:09;;;;;;;19.90;14.55;;;13.90;99.90;;;;;;5035808;28;20205;-83
2022/07/11 08:04:39;;;;;;;17.90;11.45;;;13.80;99.90;;;;;;5037041;28;20652;-83
2022/07/11 08:07:10;;;;;;;13.75;10.77;;;13.90;99.90;;;;;;5031023;28;20231;-83
2022/07/11 08:09:41;;;;;;;12.30;7.50;;;13.80;99.90;;;;;;5033672;28;20201;-84
2022/07/11 08:12:12;;;;;;;10.15;6.45;;;13.80;99.90;;;;;;5030185;28;20193;-84
2022/07/11 08:14:44;;;;;;;12.07;8.50;;;13.70;99.90;;;;;;5031790;28;20220;-83
2022/07/11 08:17:16;;;;;;;11.55;6.65;;;13.80;99.90;;;;;;5029113;28;20554;-82
2022/07/11 08:19:49;;;;;;;10.20;6.65;;;13.70;99.90;;;;;;5030372;28;20217;-82
2022/07/11 08:22:20;;;;;;;8.02;6.07;;;13.80;99.90;;;;;;5030406;28;20229;-84
2022/07/11 08:24:51;;;;;;;9.70;6.40;;;13.70;99.90;;;;;;5029511;28;20579;-83
2022/07/11 08:27:21;;;;;;;9.48;4.65;;;13.70;99.90;;;;;;5030046;28;22041;-82
2022/07/11 08:29:54;;;;;;;6.55;3.65;;;13.70;99.90;;;;;;5028979;28;20211;-83
2022/07/11 08:32:25;;;;;;;5.63;4.30;;;13.70;99.90;;;;;;5030095;28;20277;-82
2022/07/11 08:34:56;;;;;;;8.55;5.13;;;13.70;99.90;;;;;;5034160;28;20196;-85
2022/07/11 08:37:27;;;;;;;8.52;4.97;;;13.70;99.90;;;;;;5028335;28;20232;-79
2022/07/11 08:39:58;;;;;;;7.07;4.38;;;13.70;99.90;;;;;;5026046;28;20220;-80
2022/07/11 08:42:32;;;;;;;8.68;4.20;;;13.70;99.90;;;;;;5027498;28;20204;-80
2022/07/11 08:45:05;;;;;;;8.00;4.50;;;13.70;99.90;;;;;;5025841;28;20266;-79
2022/07/11 08:47:39;;;;;;;7.68;4.60;;;13.70;99.90;;;;;;5026895;28;20220;-80
2022/07/11 08:50:11;;;;;;;8.63;4.47;;;13.70;99.90;;;;;;5028486;28;22005;-80
2022/07/11 08:52:42;;;;;;;6.65;3.95;;;13.70;99.90;;;;;;5027354;28;20228;-79
2022/07/11 08:55:13;;;;;;;5.65;4.55;;;13.70;99.90;;;;;;5028774;28;20213;-80
2022/07/11 08:57:44;;;;;;;12.50;10.20;;;13.70;99.90;;;;;;5032524;28;20207;-78
2022/07/11 09:00:17;;;;;;;12.55;8.63;;;13.70;99.90;;;;;;5027911;28;20208;-79
2022/07/11 09:02:49;;;;;;;11.90;8.50;;;13.60;99.90;;;;;;5026390;28;20951;-81
2022/07/11 09:05:19;;;;;;;11.65;7.00;;;13.60;99.90;;;;;;5026364;28;20201;-80
2022/07/11 09:07:51;;;;;;;10.15;6.97;;;13.60;99.90;;;;;;5027185;28;20223;-79
2022/07/11 09:10:22;;;;;;;8.10;6.32;;;13.60;99.90;;;;;;5025914;28;20201;-78
2022/07/11 09:13:06;;;;;;;10.63;6.65;;;13.50;99.90;;;;;;5025975;28;20198;-79
2022/07/11 09:15:42;;;;;;;12.07;7.60;;;13.60;99.90;;;;;;5026536;28;20283;-79
2022/07/11 09:18:33;;;;;;;13.15;8.88;;;13.50;99.90;;;;;;5025694;28;20216;-80
2022/07/11 09:26:41;;;;;;;10.15;6.35;;;13.50;99.90;;;;;;5029461;28;20227;-79
2022/07/11 09:29:13;;;;;;;11.40;5.68;;;13.50;99.90;;;;;;5025629;28;20224;-78
2022/07/11 09:31:46;;;;;;;9.50;5.22;;;13.50;99.90;;;;;;5029900;28;20205;-78
2022/07/11 09:34:19;;;;;;;7.70;5.53;;;13.50;99.90;;;;;;5032945;28;20237;-80
2022/07/11 09:36:51;;;;;;;9.10;6.03;;;13.50;99.90;;;;;;5028309;28;20201;-79
2022/07/11 09:39:23;;;;;;;7.90;6.07;;;13.40;99.90;;;;;;5029044;28;20597;-80
2022/07/11 09:41:55;;;;;;;8.90;5.53;;;13.40;99.90;;;;;;5026480;28;20287;-78
2022/07/11 09:44:27;;;;;;;8.02;5.35;;;13.40;99.90;;;;;;5025534;28;20207;-78
2022/07/11 09:46:59;;;;;;;7.05;5.10;;;13.40;99.90;;;;;;5025888;28;20292;-78
2022/07/11 09:49:34;;;;;;;8.23;4.63;;;13.40;99.90;;;;;;5025369;28;20211;-77
2022/07/11 09:52:13;;;;;;;7.68;4.25;;;13.40;99.90;;;;;;5024398;28;20197;-79
2022/07/11 09:55:00;;;;;;;8.02;4.20;;;13.40;99.90;;;;;;5027818;28;20736;-79
2022/07/11 09:57:35;;;;;;;6.85;4.03;;;13.40;99.90;;;;;;5026968;28;20304;-77
2022/07/11 10:00:08;;;;;;;7.00;4.97;;;13.50;99.90;;;;;;5027164;28;20204;-78
2022/07/11 10:02:41;;;;;;;8.05;5.72;;;13.40;99.90;;;;;;5025526;28;20216;-77
2022/07/11 10:05:12;;;;;;;9.55;6.00;;;13.50;99.90;;;;;;5027417;28;20615;-76
2022/07/11 10:07:43;;;;;;;9.13;6.85;;;13.40;99.90;;;;;;5024361;28;20275;-78
2022/07/11 10:10:14;;;;;;;12.88;8.45;;;13.40;99.90;;;;;;5029491;28;20200;-79
2022/07/11 10:12:46;;;;;;;9.57;7.18;;;13.30;99.90;;;;;;5024732;28;20223;-79
2022/07/11 10:15:19;;;;;;;9.90;6.50;;;13.30;99.90;;;;;;5026819;28;20203;-80
2022/07/11 10:18:02;;;;;;;9.57;5.95;;;13.20;99.90;;;;;;5029341;28;20578;-81
2022/07/11 10:20:38;;;;;;;9.07;6.57;;;13.20;99.90;;;;;;5032704;28;20197;-82
2022/07/11 10:23:17;;;;;;;9.15;5.78;;;13.10;99.90;;;;;;5035227;28;20197;-84
2022/07/11 10:25:53;;;;;;;10.90;6.43;;;13.20;99.90;;;;;;5033763;28;20240;-85
2022/07/11 10:28:32;;;;;;;7.88;5.22;;;13.10;99.90;;;;;;5034033;28;20223;-86
2022/07/11 10:31:04;;;;;;;9.43;6.03;;;13.30;99.90;;;;;;5033953;28;20247;-83
2022/07/11 10:33:57;;;;;;;7.38;4.75;;;13.30;99.90;;;;;;5030337;28;20204;-81
2022/07/11 10:36:32;;;;;;;8.52;5.15;;;13.40;99.90;;;;;;5028070;28;20208;-79
2022/07/11 10:39:27;;;;;;;8.43;5.22;;;13.40;99.90;;;;;;5035260;28;20196;-78
2022/07/11 10:41:58;;;;;;;7.95;5.53;;;13.40;99.90;;;;;;5016849;28;20212;-77
2022/07/11 10:44:30;;;;;;;6.95;5.63;;;13.40;99.90;;;;;;5029452;28;20571;-78
2022/07/11 10:47:01;;;;;;;9.73;6.15;;;13.40;99.90;;;;;;5030391;28;21943;-78
2022/07/11 10:49:45;;;;;;;10.45;5.85;;;13.40;99.90;;;;;;5033142;28;20201;-79
2022/07/11 10:52:22;;;;;;;7.15;6.18;;;13.40;99.90;;;;;;5032749;28;20196;-77
2022/07/11 10:55:08;;;;;;;9.15;6.47;;;13.40;99.90;;;;;;5029698;28;20204;-79
2022/07/11 10:57:48;;;;;;;10.05;6.13;;;13.30;99.90;;;;;;5030515;28;20283;-78
2022/07/11 11:00:23;;;;;;;7.20;5.30;;;13.20;99.90;;;;;;5030885;28;20200;-80
2022/07/11 11:03:05;;;;;;;6.82;5.25;;;13.20;99.90;;;;;;5028233;28;20204;-77
2022/07/11 11:05:54;;;;;;;10.18;5.93;;;13.20;99.90;;;;;;5029253;28;20229;-77
2022/07/11 11:08:47;;;;;;;11.98;7.82;;;13.20;99.90;;;;;;5028701;28;20283;-76
2022/07/11 11:11:41;;;;;;;11.45;8.13;;;13.20;99.90;;;;;;5029876;28;20583;-77
2022/07/11 11:14:26;;;;;;;9.07;6.80;;;13.20;99.90;;;;;;5026530;28;20204;-78
2022/07/11 11:16:57;;;;;;;8.38;5.57;;;13.20;99.90;;;;;;5028333;28;21305;-76
2022/07/11 11:20:08;;;;;;;9.18;5.43;;;13.20;99.90;;;;;;5027795;28;20235;-79
2022/07/11 11:22:41;;;;;;;10.05;5.60;;;13.10;99.90;;;;;;5027377;28;20216;-78
2022/07/11 11:25:13;;;;;;;8.38;5.80;;;13.20;99.90;;;;;;5028763;28;20727;-78
2022/07/11 11:28:05;;;;;;;8.45;5.70;;;13.20;99.90;;;;;;5028882;28;20224;-78
2022/07/11 11:30:36;;;;;;;6.53;5.00;;;13.20;99.90;;;;;;5029292;28;20204;-77
2022/07/11 11:33:18;;;;;;;7.13;5.03;;;13.20;99.90;;;;;;5027264;28;20283;-77
2022/07/11 11:36:00;;;;;;;8.15;5.05;;;13.20;99.90;;;;;;5027370;28;20201;-77
2022/07/11 11:38:35;;;;;;;6.05;4.72;;;13.20;99.90;;;;;;5032754;28;20236;-78
2022/07/11 11:41:06;;;;;;;6.60;4.57;;;13.10;99.90;;;;;;5029055;28;20200;-79
2022/07/11 11:43:38;;;;;;;7.68;5.15;;;13.10;99.90;;;;;;5027545;28;20247;-79
2022/07/11 11:46:09;;;;;;;6.55;4.90;;;13.10;99.90;;;;;;5033627;28;20205;-79
2022/07/11 11:48:45;;;;;;;6.15;4.80;;;13.10;99.90;;;;;;5026999;28;20961;-79
2022/07/11 11:51:17;;;;;;;7.63;4.75;;;13.10;99.90;;;;;;5027829;28;20197;-79
2022/07/11 11:53:51;;;;;;;9.90;5.15;;;13.10;99.90;;;;;;5028495;28;20210;-78
2022/07/11 11:56:28;;;;;;;9.30;5.03;;;13.00;99.90;;;;;;5028737;28;20207;-78
2022/07/11 11:59:01;;;;;;;8.38;5.35;;;13.00;99.90;;;;;;5031619;28;20581;-78
2022/07/11 12:01:33;;;;;;;7.90;5.32;;;13.00;99.90;;;;;;5028680;28;20740;-77
2022/07/11 12:04:05;;;;;;;10.75;5.88;;;12.90;99.90;;;;;;5027749;28;20213;-78
2022/07/11 12:06:37;;;;;;;8.30;5.85;;;12.90;99.90;;;;;;5025281;28;20205;-78
2022/07/11 12:09:12;;;;;;;8.82;6.00;;;12.90;99.90;;;;;;5028380;28;20596;-82
2022/07/11 12:11:46;;;;;;;11.10;6.35;;;12.90;99.90;;;;;;5028365;28;20242;-79
2022/07/11 12:14:20;;;;;;;9.50;5.90;;;12.90;99.90;;;;;;5032259;28;20204;-79
2022/07/11 12:16:51;;;;;;;9.48;6.13;;;13.00;99.90;;;;;;5028402;28;20196;-80
2022/07/11 12:19:22;;;;;;;8.85;5.40;;;13.00;99.90;;;;;;5028616;28;20215;-79
2022/07/11 12:21:55;;;;;;;9.13;5.88;;;13.00;99.90;;;;;;5029279;28;20208;-79
2022/07/11 12:24:28;;;;;;;8.40;5.57;;;12.90;99.90;;;;;;5029430;28;20228;-79
2022/07/11 12:26:59;;;;;;;9.88;5.75;;;12.90;99.90;;;;;;5030122;28;20205;-80
2022/07/11 12:29:30;;;;;;;8.35;5.28;;;13.00;99.90;;;;;;5028102;28;20229;-82
2022/07/11 12:32:12;;;;;;;9.05;5.93;;;13.00;99.90;;;;;;5027603;28;20205;-79
2022/07/11 12:34:47;;;;;;;8.02;5.60;;;13.00;99.90;;;;;;5029726;28;20271;-79
2022/07/11 12:37:19;;;;;;;12.57;5.93;;;13.00;99.90;;;;;;5028460;28;20231;-78
2022/07/11 12:40:00;;;;;;;7.82;5.85;;;13.00;99.90;;;;;;5027711;28;20197;-79
2022/07/11 12:42:32;;;;;;;9.55;6.13;;;12.90;99.90;;;;;;5030318;28;20610;-79
2022/07/11 12:45:07;;;;;;;8.65;6.18;;;12.90;99.90;;;;;;5028380;28;20209;-79
2022/07/11 12:47:39;;;;;;;9.30;5.90;;;12.90;99.90;;;;;;5027469;28;20196;-79
2022/07/11 12:50:16;;;;;;;8.27;5.85;;;12.80;99.90;;;;;;5030389;28;20266;-79
2022/07/11 12:52:48;;;;;;;8.82;6.53;;;12.70;99.90;;;;;;5027716;28;20698;-80
2022/07/11 12:55:27;;;;;;;10.35;6.07;;;12.80;99.90;;;;;;5029206;28;20209;-78
2022/07/11 12:58:10;;;;;;;9.40;6.53;;;12.80;99.90;;;;;;5029145;28;20208;-79
2022/07/11 13:00:59;;;;;;;9.48;6.53;;;12.80;99.90;;;;;;5027057;28;20207;-78
2022/07/11 13:03:33;;;;;;;10.40;6.53;;;12.80;99.90;;;;;;5027307;28;20208;-79
2022/07/11 13:06:04;;;;;;;9.48;6.93;;;12.80;99.90;;;;;;5026803;28;20204;-79
2022/07/11 13:08:44;;;;;;;11.07;6.70;;;12.80;99.90;;;;;;5028189;28;20228;-79
2022/07/11 13:11:19;;;;;;;10.43;6.35;;;12.90;99.90;;;;;;5029497;28;20197;-79
2022/07/11 13:13:50;;;;;;;10.27;6.47;;;12.90;99.90;;;;;;5027883;28;20193;-78
2022/07/11 13:16:22;;;;;;;10.07;6.57;;;12.90;99.90;;;;;;5027119;28;21230;-79
2022/07/11 13:18:52;;;;;;;9.75;6.75;;;12.90;99.90;;;;;;5028235;28;20211;-79
2022/07/11 13:21:23;;;;;;;10.95;6.47;;;12.80;99.90;;;;;;5027174;28;20773;-80
2022/07/11 13:23:54;;;;;;;9.50;6.95;;;12.80;99.90;;;;;;5028805;28;20205;-80
2022/07/11 13:26:27;;;;;;;11.90;6.88;;;12.80;99.90;;;;;;5027812;28;20208;-80